createdAt,value
2022-12-02T00:01:02.191Z,65.81
2022-12-02T00:03:30.028Z,65.17
2022-12-02T00:06:32.409Z,65.52
2022-12-02T00:12:38.232Z,65.28
2022-12-02T00:15:51.171Z,68.06
2022-12-02T00:18:42.614Z,68.61
2022-12-02T00:21:09.697Z,66.57
2022-12-02T00:23:45.699Z,66.94
2022-12-02T00:26:33.318Z,67.50
2022-12-02T00:29:04.114Z,68.96
2022-12-02T00:31:33.872Z,70.02
2022-12-02T00:34:19.204Z,68.59
2022-12-02T00:36:52.092Z,69.65
2022-12-02T00:39:24.972Z,68.71
2022-12-02T00:41:57.992Z,68.84
2022-12-02T00:44:43.805Z,68.67
2022-12-02T00:47:10.892Z,67.88
2022-12-02T00:49:37.968Z,66.46
2022-12-02T00:52:05.088Z,66.74
2022-12-02T00:54:32.318Z,66.02
2022-12-02T00:57:00.107Z,66.80
2022-12-02T00:59:28.228Z,68.98
2022-12-02T01:01:55.456Z,67.63
2022-12-02T01:04:22.643Z,68.00
2022-12-02T01:06:49.754Z,68.56
2022-12-02T01:09:16.860Z,69.01
2022-12-02T01:11:44.157Z,68.90
2022-12-02T01:14:11.405Z,68.12
2022-12-02T01:16:39.660Z,68.50
2022-12-02T01:19:06.797Z,68.88
2022-12-02T01:21:33.865Z,66.03
2022-12-02T01:24:00.959Z,65.93
2022-12-02T01:26:28.052Z,66.63
2022-12-02T01:28:55.433Z,67.71
2022-12-02T01:31:23.312Z,69.06
2022-12-02T01:34:09.439Z,70.49
2022-12-02T01:36:36.459Z,70.96
2022-12-02T01:39:22.020Z,71.67
2022-12-02T01:42:07.940Z,71.39
2022-12-02T01:44:55.220Z,71.75
2022-12-02T01:47:41.939Z,72.07
2022-12-02T01:50:28.725Z,70.52
2022-12-02T01:53:14.508Z,70.09
2022-12-02T01:56:00.323Z,71.53
2022-12-02T01:58:46.044Z,71.04
2022-12-02T02:01:34.483Z,71.65
2022-12-02T02:04:20.373Z,70.91
2022-12-02T02:07:06.501Z,71.26
2022-12-02T02:09:52.433Z,72.34
2022-12-02T02:12:38.472Z,72.33
2022-12-02T02:15:25.558Z,72.56
2022-12-02T02:17:55.258Z,71.68
2022-12-02T02:20:24.426Z,71.43
2022-12-02T02:23:06.740Z,71.55
2022-12-02T02:25:41.989Z,72.12
2022-12-02T02:28:09.751Z,71.65
2022-12-02T02:30:38.078Z,71.41
2022-12-02T02:33:07.991Z,72.72
2022-12-02T02:35:37.184Z,72.75
2022-12-02T02:38:07.376Z,72.76
2022-12-02T02:40:36.004Z,71.99
2022-12-02T02:43:05.004Z,71.66
2022-12-02T02:45:36.311Z,73.34
2022-12-02T02:48:08.081Z,72.94
2022-12-02T02:50:38.523Z,71.58
2022-12-02T02:53:26.543Z,71.99
2022-12-02T02:55:56.333Z,71.22
2022-12-02T02:58:25.976Z,71.43
2022-12-02T03:00:54.910Z,71.89
2022-12-02T03:03:25.912Z,70.95
2022-12-02T03:05:55.177Z,70.91
2022-12-02T03:08:23.861Z,70.85
2022-12-02T03:10:54.455Z,71.41
2022-12-02T03:13:21.779Z,70.98
2022-12-02T03:15:49.646Z,70.00
2022-12-02T03:18:16.939Z,70.85
2022-12-02T03:20:44.087Z,71.79
2022-12-02T03:23:11.081Z,71.53
2022-12-02T03:25:38.283Z,71.38
2022-12-02T03:28:05.973Z,72.88
2022-12-02T03:30:33.372Z,72.64
2022-12-02T03:33:00.704Z,73.17
2022-12-02T03:35:27.803Z,73.51
2022-12-02T03:37:54.832Z,73.76
2022-12-02T03:40:21.976Z,74.20
2022-12-02T03:42:49.237Z,73.77
2022-12-02T03:45:16.432Z,73.71
2022-12-02T03:47:44.035Z,73.34
2022-12-02T03:50:12.584Z,73.63
2022-12-02T03:52:42.004Z,73.13
2022-12-02T03:55:10.116Z,73.93
2022-12-02T03:57:37.499Z,73.36
2022-12-02T04:00:07.970Z,72.81
2022-12-02T04:02:41.037Z,71.55
2022-12-02T04:05:08.451Z,71.12
2022-12-02T04:07:38.092Z,71.12
2022-12-02T04:10:08.052Z,69.92
2022-12-02T04:12:35.065Z,69.37
2022-12-02T04:15:02.115Z,69.35
2022-12-02T04:17:30.526Z,70.55
2022-12-02T04:19:57.530Z,71.73
2022-12-02T04:22:24.555Z,71.79
2022-12-02T04:24:51.912Z,73.14
2022-12-02T04:27:19.170Z,73.71
2022-12-02T04:29:46.251Z,73.84
2022-12-02T04:32:13.250Z,74.50
2022-12-02T04:34:40.251Z,74.19
2022-12-02T04:37:07.270Z,75.12
2022-12-02T04:39:34.303Z,75.01
2022-12-02T04:42:01.540Z,75.22
2022-12-02T04:44:28.591Z,74.20
2022-12-02T04:46:55.972Z,72.30
2022-12-02T04:49:23.024Z,70.80
2022-12-02T04:51:50.023Z,69.65
2022-12-02T04:54:17.019Z,69.98
2022-12-02T04:56:44.120Z,70.85
2022-12-02T04:59:11.178Z,71.09
2022-12-02T05:01:38.156Z,69.47
2022-12-02T05:04:05.203Z,68.84
2022-12-02T05:06:32.260Z,68.55
2022-12-02T05:08:59.336Z,70.59
2022-12-02T05:11:26.348Z,71.20
2022-12-02T05:13:53.392Z,71.77
2022-12-02T05:16:20.457Z,71.68
2022-12-02T05:18:47.546Z,70.70
2022-12-02T05:21:14.567Z,70.03
2022-12-02T05:23:41.607Z,68.86
2022-12-02T05:26:08.652Z,66.90
2022-12-02T05:28:35.796Z,66.80
2022-12-02T05:31:02.912Z,67.59
2022-12-02T05:33:30.258Z,68.42
2022-12-02T05:35:57.324Z,66.88
2022-12-02T05:38:24.379Z,68.37
2022-12-02T05:40:57.814Z,71.38
2022-12-02T05:43:26.871Z,71.49
2022-12-02T05:45:59.389Z,71.10
2022-12-02T05:48:26.952Z,68.93
2022-12-02T05:50:54.399Z,69.49
2022-12-02T05:53:26.310Z,68.91
2022-12-02T05:55:55.495Z,67.82
2022-12-02T05:58:23.515Z,69.23
2022-12-02T06:00:56.511Z,68.80
2022-12-02T06:03:23.838Z,69.02
2022-12-02T06:05:53.573Z,70.53
2022-12-02T06:08:27.739Z,70.51
2022-12-02T06:11:01.375Z,72.02
2022-12-02T06:13:32.740Z,72.11
2022-12-02T06:16:00.789Z,72.74
2022-12-02T06:18:32.549Z,73.80
2022-12-02T06:21:01.813Z,73.92
2022-12-02T06:23:32.560Z,72.62
2022-12-02T06:25:59.900Z,71.17
2022-12-02T06:28:29.536Z,70.72
2022-12-02T06:31:17.270Z,70.16
2022-12-02T06:34:19.654Z,69.24
2022-12-02T06:37:19.168Z,69.95
2022-12-02T06:40:29.852Z,70.41
2022-12-02T06:43:24.847Z,72.66
2022-12-02T06:45:51.947Z,72.16
2022-12-02T06:48:25.040Z,71.33
2022-12-02T06:50:52.536Z,71.10
2022-12-02T06:53:32.696Z,71.14
2022-12-02T06:56:27.744Z,72.15
2022-12-02T06:59:01.615Z,72.44
2022-12-02T07:01:41.580Z,71.98
2022-12-02T07:04:08.700Z,71.70
2022-12-02T07:06:41.320Z,70.50
2022-12-02T07:09:18.575Z,70.26
2022-12-02T07:11:55.494Z,71.04
2022-12-02T07:14:33.271Z,72.22
2022-12-02T07:17:06.691Z,71.79
2022-12-02T07:19:40.768Z,71.60
2022-12-02T07:22:24.039Z,69.69
2022-12-02T07:25:17.100Z,70.19
2022-12-02T07:27:50.001Z,70.27
2022-12-02T07:30:33.188Z,70.31
2022-12-02T07:33:01.302Z,70.68
2022-12-02T07:35:28.832Z,70.28
2022-12-02T07:37:57.996Z,71.92
2022-12-02T07:40:26.164Z,71.77
2022-12-02T07:42:53.207Z,71.93
2022-12-02T07:45:20.539Z,71.99
2022-12-02T07:48:08.435Z,70.47
2022-12-02T07:50:54.231Z,70.14
2022-12-02T07:53:39.508Z,70.35
2022-12-02T07:56:24.941Z,68.41
2022-12-02T07:59:12.425Z,67.99
2022-12-02T08:01:55.520Z,68.40
2022-12-02T08:04:41.543Z,67.88
2022-12-02T08:07:27.457Z,67.25
2022-12-02T08:10:13.304Z,68.05
2022-12-02T08:12:58.754Z,69.01
2022-12-02T08:15:44.384Z,70.07
2022-12-02T08:18:30.057Z,70.03
2022-12-02T08:21:15.403Z,69.32
2022-12-02T08:24:01.496Z,70.33
2022-12-02T08:26:47.260Z,71.47
2022-12-02T08:29:32.915Z,71.56
2022-12-02T08:32:20.504Z,69.84
2022-12-02T08:35:06.534Z,69.48
2022-12-02T08:37:52.207Z,69.46
2022-12-02T08:40:38.192Z,68.52
2022-12-02T08:43:23.564Z,70.15
2022-12-02T08:46:09.669Z,69.53
2022-12-02T08:48:55.476Z,69.72
2022-12-02T08:51:41.807Z,68.85
2022-12-02T08:54:08.819Z,68.94
2022-12-02T08:56:35.861Z,70.30
2022-12-02T08:59:03.342Z,69.13
2022-12-02T09:01:33.056Z,70.27
2022-12-02T09:04:00.231Z,70.61
2022-12-02T09:06:29.845Z,71.48
2022-12-02T09:08:58.898Z,71.92
2022-12-02T09:11:25.913Z,71.06
2022-12-02T09:13:52.881Z,71.53
2022-12-02T09:16:19.878Z,69.90
2022-12-02T09:18:47.157Z,70.59
2022-12-02T09:21:14.239Z,71.42
2022-12-02T09:23:44.884Z,70.38
2022-12-02T09:26:14.352Z,69.71
2022-12-02T09:28:41.378Z,70.63
2022-12-02T09:31:08.451Z,72.59
2022-12-02T09:33:35.497Z,71.26
2022-12-02T09:36:02.466Z,71.80
2022-12-02T09:38:31.426Z,72.45
2022-12-02T09:41:00.287Z,73.31
2022-12-02T09:43:29.090Z,73.36
2022-12-02T09:45:56.699Z,73.02
2022-12-02T09:48:23.968Z,73.32
2022-12-02T09:50:51.382Z,73.77
2022-12-02T09:53:20.319Z,74.01
2022-12-02T09:55:47.393Z,74.11
2022-12-02T09:58:33.278Z,74.25
2022-12-02T10:01:00.277Z,74.04
2022-12-02T10:03:29.244Z,72.77
2022-12-02T10:05:56.809Z,73.57
2022-12-02T10:08:27.734Z,72.88
2022-12-02T10:10:55.183Z,72.99
2022-12-02T10:13:24.710Z,71.80
2022-12-02T10:15:52.514Z,72.41
2022-12-02T10:18:24.383Z,72.57
2022-12-02T10:20:51.703Z,72.26
2022-12-02T10:24:00.336Z,70.99
2022-12-02T10:26:42.103Z,71.55
2022-12-02T10:29:16.343Z,71.87
2022-12-02T10:31:55.159Z,72.04
2022-12-02T10:34:23.290Z,71.78
2022-12-02T10:37:24.233Z,71.78
2022-12-02T10:40:21.531Z,71.67
2022-12-02T10:43:08.153Z,71.67
2022-12-02T10:45:35.446Z,71.73
2022-12-02T10:48:17.754Z,70.85
2022-12-02T10:50:45.120Z,71.19
2022-12-02T10:53:15.365Z,70.66
2022-12-02T10:55:42.674Z,70.07
2022-12-02T10:58:24.893Z,70.07
2022-12-02T11:00:52.152Z,70.74
2022-12-02T11:03:20.505Z,69.50
2022-12-02T11:05:48.056Z,69.48
2022-12-02T11:08:33.640Z,69.36
2022-12-02T11:11:24.885Z,68.37
2022-12-02T11:13:55.283Z,69.23
2022-12-02T11:16:51.406Z,68.77
2022-12-02T11:19:35.328Z,67.43
2022-12-02T11:22:03.154Z,67.05
2022-12-02T11:24:30.122Z,65.94
2022-12-02T11:26:59.802Z,65.34
2022-12-02T11:29:33.693Z,65.97
2022-12-02T11:32:38.864Z,65.33
2022-12-02T11:35:18.562Z,66.26
2022-12-02T11:37:47.884Z,66.15
2022-12-02T11:40:17.983Z,65.81
2022-12-02T11:42:46.366Z,65.39
2022-12-02T11:45:16.454Z,64.62
2022-12-02T11:48:01.270Z,64.78
2022-12-02T11:50:34.879Z,64.19
2022-12-02T11:53:20.263Z,63.91
2022-12-02T11:55:50.019Z,64.32
2022-12-02T11:58:32.439Z,64.50
2022-12-02T12:01:08.591Z,65.08
2022-12-02T12:03:42.148Z,65.63
2022-12-02T12:06:14.909Z,66.22
2022-12-02T12:08:45.065Z,66.27
2022-12-02T12:11:25.976Z,66.48
2022-12-02T12:14:11.583Z,66.51
2022-12-02T12:17:16.816Z,67.40
2022-12-02T12:20:02.387Z,66.16
2022-12-02T12:22:48.872Z,65.92
2022-12-02T12:25:40.312Z,66.37
2022-12-02T12:28:28.555Z,64.95
2022-12-02T12:31:14.215Z,64.56
2022-12-02T12:33:59.936Z,65.49
2022-12-02T12:36:46.408Z,64.54
2022-12-02T12:39:32.147Z,64.99
2022-12-02T12:42:17.878Z,64.57
2022-12-02T12:45:03.744Z,66.46
2022-12-02T12:47:49.454Z,66.16
2022-12-02T12:50:34.770Z,66.02
2022-12-02T12:53:20.229Z,65.37
2022-12-02T12:56:05.851Z,64.77
2022-12-02T12:58:51.387Z,64.34
2022-12-02T13:01:38.033Z,66.22
2022-12-02T13:04:05.767Z,67.73
2022-12-02T13:06:51.405Z,67.67
2022-12-02T13:09:37.151Z,69.10
2022-12-02T13:12:24.000Z,69.07
2022-12-02T13:15:09.257Z,69.23
2022-12-02T13:17:54.586Z,69.11
2022-12-02T13:20:40.100Z,69.14
2022-12-02T13:23:25.855Z,69.18
2022-12-02T13:26:15.099Z,69.10
2022-12-02T13:29:01.257Z,68.87
2022-12-02T13:31:46.954Z,69.30
2022-12-02T13:34:32.346Z,69.25
2022-12-02T13:37:17.759Z,69.84
2022-12-02T13:40:05.612Z,70.68
2022-12-02T13:42:51.040Z,69.72
2022-12-02T13:45:36.552Z,71.35
2022-12-02T13:48:22.099Z,71.62
2022-12-02T13:51:07.557Z,72.05
2022-12-02T13:53:34.576Z,72.97
2022-12-02T13:56:01.583Z,72.51
2022-12-02T13:58:28.669Z,72.64
2022-12-02T14:00:55.679Z,72.72
2022-12-02T14:03:23.031Z,72.18
2022-12-02T14:05:50.047Z,73.00
2022-12-02T14:08:17.155Z,72.58
2022-12-02T14:10:44.211Z,72.22
2022-12-02T14:13:17.227Z,72.22
2022-12-02T14:15:46.718Z,72.73
2022-12-02T14:18:16.271Z,72.21
2022-12-02T14:20:43.250Z,72.36
2022-12-02T14:23:12.038Z,72.46
2022-12-02T14:25:39.234Z,72.15
2022-12-02T14:28:06.245Z,73.29
2022-12-02T14:30:33.397Z,73.57
2022-12-02T14:33:00.438Z,74.41
2022-12-02T14:35:45.732Z,73.32
2022-12-02T14:38:31.242Z,72.89
2022-12-02T14:41:16.848Z,71.98
2022-12-02T14:44:02.300Z,71.78
2022-12-02T14:46:47.934Z,71.83
2022-12-02T14:52:02.296Z,70.63
2022-12-02T14:54:29.256Z,70.56
2022-12-02T14:56:56.213Z,71.20
2022-12-02T14:59:23.317Z,71.08
2022-12-02T15:01:50.378Z,70.12
2022-12-02T15:04:17.440Z,71.41
2022-12-02T15:06:45.715Z,70.44
2022-12-02T15:09:12.827Z,70.89
2022-12-02T15:11:39.843Z,70.24
2022-12-02T15:14:06.791Z,70.27
2022-12-02T15:16:52.455Z,71.33
2022-12-02T15:19:19.591Z,71.42
2022-12-02T15:21:46.640Z,72.27
2022-12-02T15:24:13.770Z,70.69
2022-12-02T15:26:40.784Z,71.39
2022-12-02T15:29:07.762Z,70.36
2022-12-02T15:31:34.872Z,69.52
2022-12-02T15:34:01.961Z,69.98
2022-12-02T15:36:28.965Z,68.64
2022-12-02T15:38:55.950Z,70.24
2022-12-02T15:41:22.923Z,69.47
2022-12-02T15:43:53.428Z,69.39
2022-12-02T15:46:24.799Z,68.09
2022-12-02T15:48:51.960Z,68.28
2022-12-02T15:51:19.832Z,68.71
2022-12-02T15:53:47.113Z,69.14
2022-12-02T15:56:15.071Z,70.22
2022-12-02T15:58:42.190Z,68.78
2022-12-02T16:01:09.298Z,69.94
2022-12-02T16:03:36.349Z,69.31
2022-12-02T16:06:03.403Z,69.24
2022-12-02T16:08:30.419Z,69.76
2022-12-02T16:10:57.404Z,70.13
2022-12-02T16:13:24.510Z,69.34
2022-12-02T16:15:51.504Z,69.34
2022-12-02T16:18:18.617Z,69.39
2022-12-02T16:20:47.571Z,69.51
2022-12-02T16:23:16.768Z,70.16
2022-12-02T16:25:43.691Z,69.46
2022-12-02T16:28:10.852Z,68.94
2022-12-02T16:30:39.198Z,68.62
2022-12-02T16:33:06.230Z,68.87
2022-12-02T16:35:33.266Z,67.75
2022-12-02T16:38:04.480Z,68.70
2022-12-02T16:40:32.269Z,67.59
2022-12-02T16:42:59.392Z,67.66
2022-12-02T16:45:26.407Z,68.13
2022-12-02T16:47:53.568Z,69.18
2022-12-02T16:50:20.577Z,69.60
2022-12-02T16:52:47.649Z,68.98
2022-12-02T16:55:14.744Z,69.08
2022-12-02T16:57:41.712Z,69.37
2022-12-02T17:00:09.961Z,69.26
2022-12-02T17:02:37.071Z,69.32
2022-12-02T17:05:04.367Z,69.33
2022-12-02T17:07:31.446Z,69.48
2022-12-02T17:09:58.542Z,69.60
2022-12-02T17:12:25.499Z,69.52
2022-12-02T17:14:55.151Z,70.42
2022-12-02T17:17:45.055Z,70.63
2022-12-02T17:20:11.376Z,70.42
2022-12-02T17:22:38.345Z,70.01
2022-12-02T17:25:23.819Z,70.07
2022-12-02T17:27:50.802Z,69.13
2022-12-02T17:30:17.840Z,69.32
2022-12-02T17:32:44.806Z,68.33
2022-12-02T17:35:11.865Z,68.71
2022-12-02T17:37:38.872Z,67.87
2022-12-02T17:40:06.714Z,68.72
2022-12-02T17:42:33.764Z,68.84
2022-12-02T17:45:00.738Z,69.89
2022-12-02T17:47:27.723Z,70.97
2022-12-02T17:49:54.779Z,72.67
2022-12-02T17:52:21.945Z,71.71
2022-12-02T17:54:49.860Z,71.33
2022-12-02T17:57:18.297Z,71.69
2022-12-02T17:59:45.240Z,71.71
2022-12-02T18:02:12.470Z,71.64
2022-12-02T18:04:44.609Z,72.20
2022-12-02T18:07:12.714Z,73.11
2022-12-02T18:09:40.679Z,72.63
2022-12-02T18:12:08.797Z,73.79
2022-12-02T18:14:36.418Z,73.33
2022-12-02T18:17:06.959Z,73.31
2022-12-02T18:19:34.708Z,73.22
2022-12-02T18:22:02.204Z,73.46
2022-12-02T18:24:29.195Z,72.52
2022-12-02T18:26:56.632Z,72.18
2022-12-02T18:29:23.662Z,71.98
2022-12-02T18:31:50.689Z,72.33
2022-12-02T18:34:17.713Z,73.04
2022-12-02T18:36:45.504Z,73.34
2022-12-02T18:39:12.597Z,73.56
2022-12-02T18:41:39.564Z,73.87
2022-12-02T18:44:06.522Z,74.14
2022-12-02T18:46:33.642Z,73.45
2022-12-02T18:49:00.667Z,72.83
2022-12-02T18:51:29.572Z,73.01
2022-12-02T18:53:56.601Z,73.39
2022-12-02T18:56:24.649Z,74.18
2022-12-02T18:58:53.606Z,74.60
2022-12-02T19:01:20.990Z,75.06
2022-12-02T19:03:48.495Z,75.39
2022-12-02T19:06:15.508Z,74.45
2022-12-02T19:08:42.448Z,73.39
2022-12-02T19:11:09.445Z,73.35
2022-12-02T19:13:36.461Z,73.69
2022-12-02T19:16:03.781Z,73.82
2022-12-02T19:18:31.424Z,73.79
2022-12-02T19:20:58.551Z,73.96
2022-12-02T19:23:25.501Z,73.80
2022-12-02T19:25:52.503Z,72.98
2022-12-02T19:28:19.619Z,72.79
2022-12-02T19:30:47.912Z,74.43
2022-12-02T19:33:15.125Z,75.49
2022-12-02T19:35:42.079Z,75.16
2022-12-02T19:38:14.861Z,74.58
2022-12-02T19:40:45.648Z,74.78
2022-12-02T19:43:15.072Z,74.98
2022-12-02T19:45:42.980Z,74.23
2022-12-02T19:48:10.335Z,74.43
2022-12-02T19:50:37.356Z,74.76
2022-12-02T19:53:04.361Z,74.61
2022-12-02T19:55:32.203Z,73.24
2022-12-02T19:58:01.757Z,73.46
2022-12-02T20:00:28.759Z,74.57
2022-12-02T20:02:56.497Z,75.15
2022-12-02T20:05:23.685Z,74.56
2022-12-02T20:07:51.145Z,74.58
2022-12-02T20:10:18.722Z,74.56
2022-12-02T20:12:46.072Z,74.58
2022-12-02T20:15:14.120Z,74.81
2022-12-02T20:17:41.481Z,74.67
2022-12-02T20:20:10.944Z,74.98
2022-12-02T20:22:37.974Z,74.87
2022-12-02T20:25:05.750Z,73.66
2022-12-02T20:27:32.830Z,72.34
2022-12-02T20:29:59.847Z,71.15
2022-12-02T20:32:26.903Z,71.96
2022-12-02T20:34:54.118Z,71.71
2022-12-02T20:37:21.366Z,69.57
2022-12-02T20:39:48.464Z,69.77
2022-12-02T20:42:15.463Z,70.43
2022-12-02T20:44:42.487Z,68.58
2022-12-02T20:47:09.524Z,69.39
2022-12-02T20:49:36.847Z,70.34
2022-12-02T20:52:04.062Z,71.35
2022-12-02T20:54:31.266Z,71.90
2022-12-02T20:56:58.766Z,70.94
2022-12-02T20:59:25.814Z,70.17
2022-12-02T21:01:52.926Z,69.41
2022-12-02T21:04:19.969Z,67.81
2022-12-02T21:06:46.958Z,67.96
2022-12-02T21:09:15.917Z,67.50
2022-12-02T21:11:42.999Z,66.88
2022-12-02T21:14:10.012Z,67.22
2022-12-02T21:16:37.182Z,66.93
2022-12-02T21:19:04.309Z,67.82
2022-12-02T21:21:31.643Z,67.62
2022-12-02T21:24:03.321Z,67.67
2022-12-02T21:26:32.104Z,68.86
2022-12-02T21:28:59.291Z,68.69
2022-12-02T21:31:26.331Z,68.53
2022-12-02T21:33:53.346Z,69.60
2022-12-02T21:36:20.352Z,70.13
2022-12-02T21:38:47.376Z,69.38
2022-12-02T21:41:14.341Z,69.23
2022-12-02T21:43:41.333Z,68.25
2022-12-02T21:46:08.396Z,69.11
2022-12-02T21:48:35.624Z,68.72
2022-12-02T21:51:02.601Z,68.75
2022-12-02T21:53:29.676Z,70.31
2022-12-02T21:55:56.758Z,70.28
2022-12-02T21:58:25.478Z,72.36
2022-12-02T22:01:15.743Z,71.63
2022-12-02T22:03:43.904Z,72.70
2022-12-02T22:06:10.894Z,72.11
2022-12-02T22:08:37.877Z,71.68
2022-12-02T22:11:04.970Z,70.88
2022-12-02T22:13:31.948Z,70.27
2022-12-02T22:15:59.071Z,70.98
2022-12-02T22:18:26.164Z,71.26
2022-12-02T22:20:53.158Z,70.12
2022-12-02T22:23:20.212Z,68.48
2022-12-02T22:25:47.382Z,69.86
2022-12-02T22:28:14.363Z,70.34
2022-12-02T22:30:41.345Z,69.20
2022-12-02T22:33:08.320Z,70.05
2022-12-02T22:35:35.475Z,70.37
2022-12-02T22:38:02.565Z,71.14
2022-12-02T22:40:30.014Z,72.19
2022-12-02T22:42:57.007Z,72.51
2022-12-02T22:45:23.963Z,72.17
2022-12-02T22:47:51.069Z,71.42
2022-12-02T22:50:18.211Z,71.46
2022-12-02T22:52:45.262Z,70.79
2022-12-02T22:55:12.286Z,70.97
2022-12-02T22:57:39.912Z,71.63
2022-12-02T23:00:08.482Z,71.36
2022-12-02T23:02:35.556Z,71.04
2022-12-02T23:05:02.796Z,71.00
2022-12-02T23:07:30.277Z,71.45
2022-12-02T23:09:57.363Z,70.83
2022-12-02T23:12:25.808Z,71.27
2022-12-02T23:15:04.696Z,70.83
2022-12-02T23:17:40.378Z,71.21
2022-12-02T23:20:08.781Z,71.27
2022-12-02T23:22:36.344Z,69.93
2022-12-02T23:25:04.257Z,70.17
2022-12-02T23:27:31.435Z,70.07
2022-12-02T23:29:58.408Z,70.63
2022-12-02T23:32:25.410Z,70.13
2022-12-02T23:34:52.787Z,70.76
2022-12-02T23:37:19.932Z,71.94
2022-12-02T23:39:47.081Z,71.51
2022-12-02T23:42:14.026Z,71.55
2022-12-02T23:44:41.156Z,72.13
2022-12-02T23:47:08.374Z,72.15
2022-12-02T23:49:35.347Z,72.00
2022-12-02T23:52:02.301Z,71.62
2022-12-02T23:54:29.424Z,73.45
2022-12-02T23:56:56.495Z,73.58
2022-12-02T23:59:23.554Z,71.86
